Menominee, MI

11:55 AM CDT on August 23, 2017 (GMT -0500)
Menominee-Marinette Twin County

Weather History for KMNM - January, 2013

Change the Weather History Date:

Wednesday, January 30, 2013

  Actual Average Record
Temperature  
Mean Temperature 24 °F -  
Max Temperature 35 °F 26 °F 42 °F (1974)
Min Temperature 14 °F 8 °F -27 °F (1951)
Degree Days  
Heating Degree Days 40    
Moisture  
Dew Point 21 °F    
Average Humidity 87    
Maximum Humidity 100    
Minimum Humidity 63    
Precipitation  
Precipitation 0.01 in - - ()
Sea Level Pressure  
Sea Level Pressure 29.40 in    
Wind  
Wind Speed 10 mph (North)    
Max Wind Speed 18 mph    
Max Gust Speed 25 mph    
Visibility 3 miles    
Events      
Averages and records for this station are not official NWS values.
T = Trace of Precipitation, MM = Missing Value Source: NWS Daily Summary

Daily Weather History Graph

Daily Weather History Graph

Search for Another Location

Airport or City:

Trip Planner

Search our weather history database for the weather conditions in past years. The results will help you decide how hot, cold, wet, or windy it might be!

Date:

Astronomy

Jan. 30, 2013 Rise Set
Actual Time 7:12 AM CST 4:55 PM CST
Civil Twilight 6:41 AM CST 5:27 PM CST
Nautical Twilight 6:05 AM CST 6:02 PM CST
Astronomical Twilight 5:31 AM CST 6:37 PM CST
Moon 9:08 PM CST (1/30) 8:27 AM CST (1/30)
Length of Visible Light 10h 46m
Length of Day
9h 43m
Waning Gibbous, 87% of the Moon is Illuminated
Jan 30
Waning Gibbous
Feb 3
Last Quarter
Feb 10
New
Feb 17
First Quarter
Feb 25
Full

Hourly Weather History & Observations

Time (CST) Temp. Windchill Dew Point Humidity Pressure Visibility Wind Dir Wind Speed Gust Speed Precip Events Conditions
12:35 AM 33.8 °F 28.6 °F 30.2 °F 87% 29.53 in 10.0 mi North 5.8 mph - N/A   Overcast
12:55 AM 35.6 °F 29.2 °F 32.0 °F 87% 29.51 in 10.0 mi North 8.1 mph - N/A   Overcast
1:15 AM 32.0 °F 24.8 °F 30.2 °F 93% 29.50 in 10.0 mi North 8.1 mph - N/A   Overcast
1:35 AM 33.8 °F 26.4 °F 33.8 °F 100% 29.48 in 5.0 mi North 9.2 mph - N/A   Overcast
1:55 AM 32.0 °F 25.6 °F 30.2 °F 93% 29.51 in 6.0 mi NNW 6.9 mph - N/A   Overcast
2:15 AM 33.8 °F 27.0 °F 30.2 °F 87% 29.49 in 5.0 mi North 8.1 mph - N/A   Overcast
2:35 AM 33.8 °F 27.0 °F 30.2 °F 87% 29.47 in 4.0 mi North 8.1 mph - N/A   Overcast
2:55 AM 32.0 °F 24.8 °F 30.2 °F 93% 29.46 in 3.0 mi NNE 8.1 mph - N/A   Overcast
3:15 AM 32.0 °F 24.2 °F 32.0 °F 100% 29.45 in 3.0 mi NNE 9.2 mph - N/A   Overcast
3:35 AM 33.8 °F 27.7 °F 30.2 °F 87% 29.46 in 3.0 mi North 6.9 mph - N/A   Overcast
3:55 AM 33.8 °F 27.0 °F 30.2 °F 87% 29.46 in 6.0 mi North 8.1 mph - N/A   Overcast
4:15 AM 32.0 °F 24.2 °F 30.2 °F 93% 29.48 in 10.0 mi North 9.2 mph - N/A   Overcast
4:35 AM 30.2 °F 21.9 °F 30.2 °F 100% 29.46 in 7.0 mi NNE 9.2 mph - N/A   Overcast
4:55 AM 32.0 °F 23.6 °F 30.2 °F 93% 29.45 in 3.0 mi NE 10.4 mph 19.6 mph 0.01 in   Overcast
5:15 AM 32.0 °F 23.0 °F 28.4 °F 87% 29.46 in 4.0 mi NNE 11.5 mph 16.1 mph N/A   Overcast
5:35 AM 30.2 °F 21.3 °F 26.6 °F 86% 29.46 in 4.0 mi NNE 10.4 mph 16.1 mph N/A   Overcast
5:55 AM 30.2 °F 20.2 °F 26.6 °F 86% 29.43 in 5.0 mi NNE 12.7 mph 19.6 mph N/A   Overcast
6:15 AM 30.2 °F 21.3 °F 26.6 °F 86% 29.43 in 5.0 mi North 10.4 mph 23.0 mph N/A   Overcast
6:35 AM 30.2 °F 20.8 °F 26.6 °F 86% 29.45 in 4.0 mi NNE 11.5 mph 19.6 mph N/A   Overcast
6:55 AM 28.4 °F 19.7 °F 26.6 °F 93% 29.45 in 3.0 mi NNE 9.2 mph - N/A   Overcast
7:15 AM 28.4 °F 18.5 °F 24.8 °F 86% 29.44 in 6.0 mi NNE 11.5 mph 17.3 mph N/A   Overcast
7:35 AM 28.4 °F 17.5 °F 24.8 °F 86% 29.42 in 1.5 mi NNE 13.8 mph 21.9 mph N/A   Overcast
7:55 AM 28.4 °F 18.5 °F 23.0 °F 80% 29.43 in 2.0 mi NNE 11.5 mph 20.7 mph N/A   Overcast
8:15 AM 28.4 °F 19.7 °F 24.8 °F 86% 29.43 in 1.2 mi NNE 9.2 mph - N/A   Overcast
8:35 AM 28.4 °F 18.5 °F 24.8 °F 86% 29.42 in 1.5 mi North 11.5 mph 20.7 mph N/A   Overcast
8:55 AM 26.6 °F 16.2 °F 23.0 °F 86% 29.43 in 0.8 mi NNE 11.5 mph 17.3 mph N/A   Overcast
9:15 AM 26.6 °F 17.5 °F 24.8 °F 93% 29.42 in 0.5 mi North 9.2 mph - N/A   Overcast
9:35 AM 26.6 °F 16.2 °F 23.0 °F 86% 29.40 in 1.5 mi NNE 11.5 mph 19.6 mph N/A   Overcast
9:55 AM 26.6 °F 15.7 °F 24.8 °F 93% 29.40 in 1.2 mi NNE 12.7 mph 20.7 mph N/A   Overcast
10:15 AM 26.6 °F 16.8 °F 26.6 °F 100% 29.40 in 1.0 mi North 10.4 mph - N/A   Overcast
10:35 AM 26.6 °F 15.2 °F 24.8 °F 93% 29.37 in 0.8 mi NNE 13.8 mph 20.7 mph N/A   Overcast
10:55 AM 26.6 °F 14.7 °F 24.8 °F 93% 29.36 in 1.5 mi North 15.0 mph 19.6 mph N/A   Overcast
11:15 AM 26.6 °F 17.5 °F 23.0 °F 86% 29.35 in 3.0 mi North 9.2 mph - N/A   Mostly Cloudy
11:35 AM 26.6 °F 19.1 °F 23.0 °F 86% 29.34 in 1.0 mi North 6.9 mph 16.1 mph N/A   Overcast
11:55 AM 24.8 °F 13.4 °F 23.0 °F 93% 29.33 in 0.2 mi North 12.7 mph 16.1 mph N/A   Overcast
12:15 PM 26.6 °F 13.4 °F 24.8 °F 93% 29.31 in 0.5 mi North 18.4 mph 24.2 mph N/A   Overcast
12:35 PM 26.6 °F 15.7 °F 21.2 °F 80% 29.30 in 0.2 mi North 12.7 mph 21.9 mph N/A   Overcast
12:55 PM 24.8 °F 13.4 °F 21.2 °F 86% 29.32 in 0.5 mi North 12.7 mph 17.3 mph N/A   Overcast
1:15 PM 24.8 °F 11.1 °F 24.8 °F 100% 29.30 in 0.2 mi North 18.4 mph 23.0 mph N/A   Overcast
1:35 PM 24.8 °F 11.9 °F 24.8 °F 100% 29.30 in 0.2 mi North 16.1 mph 24.2 mph N/A   Overcast
1:55 PM 23.0 °F 9.2 °F 19.4 °F 86% 29.29 in 0.8 mi North 17.3 mph 23.0 mph N/A   Overcast
2:15 PM 23.0 °F 11.1 °F 15.8 °F 74% 29.30 in 1.0 mi NNW 12.7 mph 17.3 mph N/A   Overcast
2:35 PM 21.2 °F 6.8 °F 19.4 °F 93% 29.30 in 1.0 mi North 17.3 mph 23.0 mph N/A   Overcast
2:55 PM 21.2 °F 8.9 °F 21.2 °F 100% 29.29 in 0.8 mi North 12.7 mph 24.2 mph N/A   Overcast
3:15 PM 21.2 °F 7.8 °F 17.6 °F 86% 29.29 in 0.8 mi North 15.0 mph 20.7 mph N/A   Overcast
3:35 PM 21.2 °F 8.3 °F 10.4 °F 63% 29.30 in 0.8 mi NNW 13.8 mph 23.0 mph N/A   Overcast
3:55 PM 21.2 °F 7.8 °F 17.6 °F 86% 29.31 in 1.0 mi NNW 15.0 mph 20.7 mph N/A   Overcast
4:15 PM 21.2 °F 8.9 °F 21.2 °F 100% 29.33 in 1.2 mi NNW 12.7 mph 20.7 mph N/A   Overcast
4:35 PM 19.4 °F 6.0 °F 17.6 °F 93% 29.34 in 0.5 mi NNW 13.8 mph 19.6 mph N/A   Overcast
4:55 PM 19.4 °F 5.0 °F 12.2 °F 74% 29.34 in 0.8 mi NNW 16.1 mph 24.2 mph N/A   Overcast
5:15 PM 19.4 °F 7.2 °F 14.0 °F 80% 29.35 in 1.0 mi NNW 11.5 mph 21.9 mph N/A   Overcast
5:35 PM 19.4 °F 4.5 °F 15.8 °F 86% 29.36 in 1.5 mi NNW 17.3 mph 21.9 mph N/A   Overcast
5:55 PM 17.6 °F 3.7 °F 15.8 °F 93% 29.36 in 2.0 mi NNW 13.8 mph 23.0 mph N/A   Overcast
6:15 PM 17.6 °F 4.3 °F 15.8 °F 93% 29.37 in 2.0 mi NNW 12.7 mph 19.6 mph N/A   Overcast
6:35 PM 17.6 °F 5.0 °F 12.2 °F 79% 29.37 in 2.0 mi NNW 11.5 mph 20.7 mph N/A   Overcast
6:55 PM 15.8 °F 4.2 °F 12.2 °F 86% 29.37 in 2.5 mi NW 9.2 mph 16.1 mph N/A   Overcast
7:15 PM 15.8 °F 2.1 °F 15.8 °F 100% 29.37 in 2.5 mi NNW 12.7 mph 20.7 mph N/A   Overcast
7:35 PM 15.8 °F 2.7 °F 15.8 °F 100% 29.37 in 3.0 mi NNW 11.5 mph 19.6 mph N/A   Overcast
7:55 PM 15.8 °F 2.1 °F 14.0 °F 93% 29.37 in 5.0 mi NW 12.7 mph 18.4 mph N/A   Overcast
8:15 PM 15.8 °F 4.2 °F 12.2 °F 86% 29.38 in 8.0 mi NW 9.2 mph 18.4 mph N/A   Overcast
8:35 PM 15.8 °F 4.2 °F 12.2 °F 86% 29.39 in 3.0 mi NW 9.2 mph 25.3 mph N/A   Overcast
8:55 PM 15.8 °F 4.2 °F 12.2 °F 86% 29.39 in 3.0 mi NW 9.2 mph 19.6 mph N/A   Overcast
9:15 PM 15.8 °F 2.7 °F 10.4 °F 79% 29.40 in 2.5 mi NNW 11.5 mph 21.9 mph N/A   Overcast
9:35 PM 15.8 °F 1.4 °F 10.4 °F 79% 29.40 in 6.0 mi NW 13.8 mph 21.9 mph N/A   Overcast
9:55 PM 15.8 °F 4.2 °F 8.6 °F 73% 29.41 in 6.0 mi NW 9.2 mph 19.6 mph N/A   Overcast
10:15 PM 15.8 °F 4.2 °F 6.8 °F 68% 29.41 in 9.0 mi NNW 9.2 mph - N/A   Overcast
10:35 PM 15.8 °F 2.7 °F 8.6 °F 73% 29.42 in 5.0 mi NW 11.5 mph 17.3 mph N/A   Overcast
10:55 PM 14.0 °F 2.0 °F 8.6 °F 79% 29.43 in 5.0 mi NW 9.2 mph 23.0 mph N/A   Overcast
11:15 PM 14.0 °F 0.5 °F 6.8 °F 73% 29.44 in 10.0 mi NW 11.5 mph 20.7 mph N/A   Overcast
11:35 PM 15.8 °F 4.2 °F 6.8 °F 68% 29.45 in 10.0 mi NW 9.2 mph - N/A   Overcast
11:55 PM 14.0 °F 0.5 °F 6.8 °F 73% 29.46 in 10.0 mi NW 11.5 mph 17.3 mph N/A   Overcast